sensor_id;sensor_type;location;lat;lon;timestamp;P1;durP1;ratioP1;P2;durP2;ratioP2
74503;SDS011;62988;55.776;37.544;2023-05-09T00:02:24;34.03;;;8.53;;
74503;SDS011;62988;55.776;37.544;2023-05-09T00:04:49;29.33;;;8.27;;
74503;SDS011;62988;55.776;37.544;2023-05-09T00:07:15;35.13;;;8.25;;
74503;SDS011;62988;55.776;37.544;2023-05-09T00:09:40;31.80;;;8.32;;
74503;SDS011;62988;55.776;37.544;2023-05-09T00:12:06;27.63;;;7.72;;
74503;SDS011;62988;55.776;37.544;2023-05-09T00:14:32;23.83;;;7.60;;
74503;SDS011;62988;55.776;37.544;2023-05-09T00:16:57;26.63;;;8.30;;
74503;SDS011;62988;55.776;37.544;2023-05-09T00:19:23;24.60;;;8.00;;
74503;SDS011;62988;55.776;37.544;2023-05-09T00:21:48;29.65;;;7.93;;
74503;SDS011;62988;55.776;37.544;2023-05-09T00:24:14;27.73;;;8.10;;
74503;SDS011;62988;55.776;37.544;2023-05-09T00:26:39;20.67;;;6.93;;
74503;SDS011;62988;55.776;37.544;2023-05-09T00:29:05;25.10;;;6.80;;
74503;SDS011;62988;55.776;37.544;2023-05-09T00:31:30;23.27;;;7.18;;
74503;SDS011;62988;55.776;37.544;2023-05-09T00:33:55;21.27;;;7.33;;
74503;SDS011;62988;55.776;37.544;2023-05-09T00:36:21;22.87;;;6.80;;
74503;SDS011;62988;55.776;37.544;2023-05-09T00:38:46;23.05;;;7.55;;
74503;SDS011;62988;55.776;37.544;2023-05-09T00:41:11;30.88;;;7.97;;
74503;SDS011;62988;55.776;37.544;2023-05-09T00:43:37;27.33;;;8.17;;
74503;SDS011;62988;55.776;37.544;2023-05-09T00:46:02;38.47;;;8.27;;
74503;SDS011;62988;55.776;37.544;2023-05-09T00:48:28;28.35;;;8.20;;
74503;SDS011;62988;55.776;37.544;2023-05-09T00:50:54;23.77;;;7.50;;
74503;SDS011;62988;55.776;37.544;2023-05-09T00:53:19;26.80;;;7.55;;
74503;SDS011;62988;55.776;37.544;2023-05-09T00:55:45;24.05;;;8.10;;
74503;SDS011;62988;55.776;37.544;2023-05-09T00:58:10;22.33;;;8.30;;
74503;SDS011;62988;55.776;37.544;2023-05-09T01:00:36;26.33;;;8.43;;
74503;SDS011;62988;55.776;37.544;2023-05-09T01:03:02;24.48;;;7.82;;
74503;SDS011;62988;55.776;37.544;2023-05-09T01:05:31;21.08;;;7.40;;
74503;SDS011;62988;55.776;37.544;2023-05-09T01:08:09;19.27;;;7.63;;
74503;SDS011;62988;55.776;37.544;2023-05-09T01:13:30;19.83;;;7.35;;
74503;SDS011;62988;55.776;37.544;2023-05-09T01:16:06;21.48;;;7.60;;
74503;SDS011;62988;55.776;37.544;2023-05-09T01:18:42;19.92;;;7.63;;
74503;SDS011;62988;55.776;37.544;2023-05-09T01:21:12;21.65;;;7.38;;
74503;SDS011;62988;55.776;37.544;2023-05-09T01:31:37;29.30;;;7.72;;
74503;SDS011;62988;55.776;37.544;2023-05-09T01:34:04;17.73;;;6.55;;
74503;SDS011;62988;55.776;37.544;2023-05-09T01:36:29;18.67;;;7.43;;
74503;SDS011;62988;55.776;37.544;2023-05-09T01:38:57;19.63;;;7.30;;
74503;SDS011;62988;55.776;37.544;2023-05-09T01:41:23;25.83;;;8.20;;
74503;SDS011;62988;55.776;37.544;2023-05-09T01:43:49;16.80;;;8.02;;
74503;SDS011;62988;55.776;37.544;2023-05-09T01:46:16;20.88;;;7.80;;
74503;SDS011;62988;55.776;37.544;2023-05-09T01:48:42;21.70;;;7.90;;
74503;SDS011;62988;55.776;37.544;2023-05-09T01:51:08;30.75;;;7.25;;
74503;SDS011;62988;55.776;37.544;2023-05-09T01:53:33;20.47;;;6.67;;
74503;SDS011;62988;55.776;37.544;2023-05-09T01:55:59;21.52;;;7.75;;
74503;SDS011;62988;55.776;37.544;2023-05-09T01:58:26;21.30;;;7.68;;
74503;SDS011;62988;55.776;37.544;2023-05-09T02:00:52;28.77;;;7.72;;
74503;SDS011;62988;55.776;37.544;2023-05-09T02:03:17;17.60;;;8.60;;
74503;SDS011;62988;55.776;37.544;2023-05-09T02:05:43;18.98;;;7.32;;
74503;SDS011;62988;55.776;37.544;2023-05-09T02:08:09;24.13;;;8.48;;
74503;SDS011;62988;55.776;37.544;2023-05-09T02:10:34;24.33;;;8.52;;
74503;SDS011;62988;55.776;37.544;2023-05-09T02:13:00;22.85;;;7.80;;
74503;SDS011;62988;55.776;37.544;2023-05-09T02:15:25;25.88;;;7.78;;
74503;SDS011;62988;55.776;37.544;2023-05-09T02:17:51;29.85;;;7.78;;
74503;SDS011;62988;55.776;37.544;2023-05-09T02:20:16;29.98;;;9.30;;
74503;SDS011;62988;55.776;37.544;2023-05-09T02:22:42;29.75;;;8.77;;
74503;SDS011;62988;55.776;37.544;2023-05-09T02:25:09;22.35;;;7.90;;
74503;SDS011;62988;55.776;37.544;2023-05-09T02:27:34;27.20;;;8.27;;
74503;SDS011;62988;55.776;37.544;2023-05-09T02:30:03;25.75;;;7.90;;
74503;SDS011;62988;55.776;37.544;2023-05-09T02:32:31;26.83;;;8.68;;
74503;SDS011;62988;55.776;37.544;2023-05-09T02:34:58;20.73;;;8.32;;
74503;SDS011;62988;55.776;37.544;2023-05-09T02:37:24;33.30;;;8.13;;
74503;SDS011;62988;55.776;37.544;2023-05-09T02:39:50;23.70;;;8.15;;
74503;SDS011;62988;55.776;37.544;2023-05-09T02:42:22;25.55;;;7.93;;
74503;SDS011;62988;55.776;37.544;2023-05-09T02:44:52;26.88;;;8.57;;
74503;SDS011;62988;55.776;37.544;2023-05-09T02:47:18;28.33;;;7.97;;
74503;SDS011;62988;55.776;37.544;2023-05-09T02:49:43;23.75;;;8.00;;
74503;SDS011;62988;55.776;37.544;2023-05-09T02:52:09;22.35;;;8.38;;
74503;SDS011;62988;55.776;37.544;2023-05-09T02:54:35;29.08;;;7.68;;
74503;SDS011;62988;55.776;37.544;2023-05-09T02:57:01;24.45;;;7.82;;
74503;SDS011;62988;55.776;37.544;2023-05-09T02:59:26;29.42;;;8.15;;
74503;SDS011;62988;55.776;37.544;2023-05-09T03:01:51;24.65;;;9.23;;
74503;SDS011;62988;55.776;37.544;2023-05-09T03:04:17;30.87;;;9.03;;
74503;SDS011;62988;55.776;37.544;2023-05-09T03:06:43;25.45;;;9.10;;
74503;SDS011;62988;55.776;37.544;2023-05-09T03:09:09;25.88;;;8.63;;
74503;SDS011;62988;55.776;37.544;2023-05-09T03:11:34;26.35;;;9.82;;
74503;SDS011;62988;55.776;37.544;2023-05-09T03:14:03;24.70;;;8.48;;
74503;SDS011;62988;55.776;37.544;2023-05-09T03:16:28;24.73;;;9.10;;
74503;SDS011;62988;55.776;37.544;2023-05-09T03:18:53;24.05;;;8.57;;
74503;SDS011;62988;55.776;37.544;2023-05-09T03:21:19;22.93;;;8.67;;
74503;SDS011;62988;55.776;37.544;2023-05-09T03:23:44;22.87;;;8.67;;
74503;SDS011;62988;55.776;37.544;2023-05-09T03:26:10;21.27;;;8.52;;
74503;SDS011;62988;55.776;37.544;2023-05-09T03:28:35;24.47;;;9.67;;
74503;SDS011;62988;55.776;37.544;2023-05-09T03:31:00;20.10;;;8.20;;
74503;SDS011;62988;55.776;37.544;2023-05-09T03:33:26;19.63;;;8.70;;
74503;SDS011;62988;55.776;37.544;2023-05-09T03:35:51;25.77;;;9.37;;
74503;SDS011;62988;55.776;37.544;2023-05-09T03:38:16;18.03;;;8.20;;
74503;SDS011;62988;55.776;37.544;2023-05-09T03:40:42;19.33;;;8.32;;
74503;SDS011;62988;55.776;37.544;2023-05-09T03:43:07;21.97;;;9.10;;
74503;SDS011;62988;55.776;37.544;2023-05-09T03:45:32;19.73;;;8.93;;
74503;SDS011;62988;55.776;37.544;2023-05-09T03:47:59;21.88;;;8.18;;
74503;SDS011;62988;55.776;37.544;2023-05-09T03:50:25;21.83;;;9.23;;
74503;SDS011;62988;55.776;37.544;2023-05-09T03:52:50;18.83;;;8.07;;
74503;SDS011;62988;55.776;37.544;2023-05-09T03:55:16;19.77;;;8.68;;
74503;SDS011;62988;55.776;37.544;2023-05-09T03:57:42;21.23;;;9.10;;
74503;SDS011;62988;55.776;37.544;2023-05-09T04:00:07;20.13;;;9.20;;
74503;SDS011;62988;55.776;37.544;2023-05-09T04:02:34;24.95;;;9.15;;
74503;SDS011;62988;55.776;37.544;2023-05-09T04:04:59;25.05;;;8.25;;
74503;SDS011;62988;55.776;37.544;2023-05-09T04:07:25;27.30;;;9.10;;
74503;SDS011;62988;55.776;37.544;2023-05-09T04:09:53;21.35;;;8.65;;
74503;SDS011;62988;55.776;37.544;2023-05-09T04:12:19;17.20;;;7.75;;
74503;SDS011;62988;55.776;37.544;2023-05-09T04:14:45;26.10;;;9.13;;
74503;SDS011;62988;55.776;37.544;2023-05-09T04:17:10;23.63;;;7.70;;
74503;SDS011;62988;55.776;37.544;2023-05-09T04:19:35;14.07;;;8.15;;
74503;SDS011;62988;55.776;37.544;2023-05-09T04:22:01;18.27;;;7.83;;
74503;SDS011;62988;55.776;37.544;2023-05-09T04:24:26;17.87;;;7.87;;
74503;SDS011;62988;55.776;37.544;2023-05-09T04:26:51;12.80;;;7.70;;
74503;SDS011;62988;55.776;37.544;2023-05-09T04:29:17;16.95;;;7.72;;
74503;SDS011;62988;55.776;37.544;2023-05-09T04:31:42;16.87;;;7.57;;
74503;SDS011;62988;55.776;37.544;2023-05-09T04:34:08;20.45;;;7.72;;
74503;SDS011;62988;55.776;37.544;2023-05-09T04:36:33;19.08;;;7.95;;
74503;SDS011;62988;55.776;37.544;2023-05-09T04:38:58;14.23;;;7.40;;
74503;SDS011;62988;55.776;37.544;2023-05-09T04:41:24;17.60;;;8.43;;
74503;SDS011;62988;55.776;37.544;2023-05-09T04:43:49;18.03;;;7.97;;
74503;SDS011;62988;55.776;37.544;2023-05-09T04:46:15;19.77;;;8.32;;
74503;SDS011;62988;55.776;37.544;2023-05-09T04:48:41;13.60;;;7.00;;
74503;SDS011;62988;55.776;37.544;2023-05-09T04:51:06;12.52;;;6.50;;
74503;SDS011;62988;55.776;37.544;2023-05-09T04:53:31;13.25;;;6.18;;
74503;SDS011;62988;55.776;37.544;2023-05-09T04:55:58;13.55;;;6.63;;
74503;SDS011;62988;55.776;37.544;2023-05-09T04:58:23;13.27;;;6.97;;
74503;SDS011;62988;55.776;37.544;2023-05-09T05:00:50;15.25;;;6.75;;
74503;SDS011;62988;55.776;37.544;2023-05-09T05:03:16;15.02;;;7.10;;
74503;SDS011;62988;55.776;37.544;2023-05-09T05:05:42;12.45;;;5.22;;
74503;SDS011;62988;55.776;37.544;2023-05-09T05:08:07;13.90;;;6.22;;
74503;SDS011;62988;55.776;37.544;2023-05-09T05:10:32;12.07;;;5.20;;
74503;SDS011;62988;55.776;37.544;2023-05-09T05:12:58;9.70;;;5.03;;
74503;SDS011;62988;55.776;37.544;2023-05-09T05:15:23;11.23;;;4.27;;
74503;SDS011;62988;55.776;37.544;2023-05-09T05:17:48;8.37;;;4.20;;
74503;SDS011;62988;55.776;37.544;2023-05-09T05:20:14;10.77;;;4.05;;
74503;SDS011;62988;55.776;37.544;2023-05-09T05:22:39;11.20;;;4.32;;
74503;SDS011;62988;55.776;37.544;2023-05-09T05:25:05;11.77;;;5.15;;
74503;SDS011;62988;55.776;37.544;2023-05-09T05:27:30;11.13;;;4.72;;
74503;SDS011;62988;55.776;37.544;2023-05-09T05:29:56;7.53;;;2.97;;
74503;SDS011;62988;55.776;37.544;2023-05-09T05:32:21;7.65;;;2.88;;
74503;SDS011;62988;55.776;37.544;2023-05-09T05:34:46;12.23;;;3.00;;
74503;SDS011;62988;55.776;37.544;2023-05-09T05:37:12;12.07;;;3.57;;
74503;SDS011;62988;55.776;37.544;2023-05-09T05:39:37;7.53;;;2.90;;
74503;SDS011;62988;55.776;37.544;2023-05-09T05:42:02;6.47;;;2.17;;
74503;SDS011;62988;55.776;37.544;2023-05-09T05:44:28;7.63;;;2.00;;
74503;SDS011;62988;55.776;37.544;2023-05-09T05:46:53;7.70;;;2.20;;
74503;SDS011;62988;55.776;37.544;2023-05-09T05:49:18;2.92;;;1.75;;
74503;SDS011;62988;55.776;37.544;2023-05-09T05:51:44;5.90;;;1.30;;
74503;SDS011;62988;55.776;37.544;2023-05-09T05:54:09;10.43;;;2.10;;
74503;SDS011;62988;55.776;37.544;2023-05-09T05:56:35;8.80;;;2.90;;
74503;SDS011;62988;55.776;37.544;2023-05-09T05:59:00;6.67;;;2.40;;
74503;SDS011;62988;55.776;37.544;2023-05-09T06:01:25;6.72;;;3.05;;
74503;SDS011;62988;55.776;37.544;2023-05-09T06:03:51;8.23;;;3.00;;
74503;SDS011;62988;55.776;37.544;2023-05-09T06:06:19;4.35;;;1.73;;
74503;SDS011;62988;55.776;37.544;2023-05-09T06:08:45;3.67;;;1.77;;
74503;SDS011;62988;55.776;37.544;2023-05-09T06:11:11;6.32;;;2.40;;
74503;SDS011;62988;55.776;37.544;2023-05-09T06:13:36;10.63;;;2.30;;
74503;SDS011;62988;55.776;37.544;2023-05-09T06:16:01;7.57;;;2.27;;
74503;SDS011;62988;55.776;37.544;2023-05-09T06:18:28;6.45;;;2.83;;
74503;SDS011;62988;55.776;37.544;2023-05-09T06:20:53;5.53;;;2.13;;
74503;SDS011;62988;55.776;37.544;2023-05-09T06:23:19;11.63;;;4.50;;
74503;SDS011;62988;55.776;37.544;2023-05-09T06:25:46;4.00;;;1.80;;
74503;SDS011;62988;55.776;37.544;2023-05-09T06:28:11;3.65;;;1.67;;
74503;SDS011;62988;55.776;37.544;2023-05-09T06:30:37;5.57;;;1.97;;
74503;SDS011;62988;55.776;37.544;2023-05-09T06:33:02;4.47;;;1.47;;
74503;SDS011;62988;55.776;37.544;2023-05-09T06:35:28;4.30;;;1.30;;
74503;SDS011;62988;55.776;37.544;2023-05-09T06:37:53;4.70;;;2.10;;
74503;SDS011;62988;55.776;37.544;2023-05-09T06:40:18;4.15;;;1.88;;
74503;SDS011;62988;55.776;37.544;2023-05-09T06:42:44;4.63;;;1.70;;
74503;SDS011;62988;55.776;37.544;2023-05-09T06:45:09;4.22;;;1.42;;
74503;SDS011;62988;55.776;37.544;2023-05-09T06:47:35;2.85;;;1.35;;
74503;SDS011;62988;55.776;37.544;2023-05-09T06:50:00;3.83;;;1.88;;
74503;SDS011;62988;55.776;37.544;2023-05-09T06:52:26;3.55;;;1.45;;
74503;SDS011;62988;55.776;37.544;2023-05-09T06:54:51;4.40;;;1.97;;
74503;SDS011;62988;55.776;37.544;2023-05-09T06:57:17;3.78;;;1.45;;
74503;SDS011;62988;55.776;37.544;2023-05-09T06:59:42;3.35;;;1.10;;
74503;SDS011;62988;55.776;37.544;2023-05-09T07:02:09;2.60;;;0.90;;
74503;SDS011;62988;55.776;37.544;2023-05-09T07:04:34;4.50;;;0.95;;
74503;SDS011;62988;55.776;37.544;2023-05-09T07:06:59;5.20;;;1.30;;
74503;SDS011;62988;55.776;37.544;2023-05-09T07:09:25;3.10;;;0.93;;
74503;SDS011;62988;55.776;37.544;2023-05-09T07:11:53;2.90;;;1.80;;
74503;SDS011;62988;55.776;37.544;2023-05-09T07:14:18;3.50;;;1.05;;
74503;SDS011;62988;55.776;37.544;2023-05-09T07:16:44;2.47;;;1.15;;
74503;SDS011;62988;55.776;37.544;2023-05-09T07:19:10;3.65;;;1.13;;
74503;SDS011;62988;55.776;37.544;2023-05-09T07:21:36;3.90;;;1.38;;
74503;SDS011;62988;55.776;37.544;2023-05-09T07:24:01;3.93;;;1.07;;
74503;SDS011;62988;55.776;37.544;2023-05-09T07:26:26;3.25;;;1.30;;
74503;SDS011;62988;55.776;37.544;2023-05-09T07:28:52;4.05;;;1.50;;
74503;SDS011;62988;55.776;37.544;2023-05-09T07:31:17;3.13;;;1.33;;
74503;SDS011;62988;55.776;37.544;2023-05-09T07:33:43;2.90;;;1.38;;
74503;SDS011;62988;55.776;37.544;2023-05-09T07:36:08;3.78;;;1.30;;
74503;SDS011;62988;55.776;37.544;2023-05-09T07:38:37;4.47;;;1.40;;
74503;SDS011;62988;55.776;37.544;2023-05-09T07:41:02;5.50;;;1.10;;
74503;SDS011;62988;55.776;37.544;2023-05-09T07:43:28;2.77;;;1.10;;
74503;SDS011;62988;55.776;37.544;2023-05-09T07:45:53;3.23;;;1.20;;
74503;SDS011;62988;55.776;37.544;2023-05-09T07:48:18;4.67;;;1.37;;
74503;SDS011;62988;55.776;37.544;2023-05-09T07:50:44;2.53;;;1.10;;
74503;SDS011;62988;55.776;37.544;2023-05-09T07:53:09;3.65;;;1.60;;
74503;SDS011;62988;55.776;37.544;2023-05-09T07:55:35;3.13;;;1.38;;
74503;SDS011;62988;55.776;37.544;2023-05-09T07:58:00;3.35;;;1.50;;
74503;SDS011;62988;55.776;37.544;2023-05-09T08:00:25;5.05;;;2.85;;
74503;SDS011;62988;55.776;37.544;2023-05-09T08:02:51;3.78;;;1.70;;
74503;SDS011;62988;55.776;37.544;2023-05-09T08:05:16;4.63;;;1.17;;
74503;SDS011;62988;55.776;37.544;2023-05-09T08:07:42;2.17;;;1.00;;
74503;SDS011;62988;55.776;37.544;2023-05-09T08:10:07;2.07;;;1.00;;
74503;SDS011;62988;55.776;37.544;2023-05-09T08:12:33;3.35;;;0.98;;
74503;SDS011;62988;55.776;37.544;2023-05-09T08:14:58;2.40;;;1.10;;
74503;SDS011;62988;55.776;37.544;2023-05-09T08:17:24;3.37;;;1.20;;
74503;SDS011;62988;55.776;37.544;2023-05-09T08:19:49;2.17;;;0.90;;
74503;SDS011;62988;55.776;37.544;2023-05-09T08:22:17;2.45;;;1.00;;
74503;SDS011;62988;55.776;37.544;2023-05-09T08:24:43;2.72;;;1.20;;
74503;SDS011;62988;55.776;37.544;2023-05-09T08:27:09;3.47;;;1.02;;
74503;SDS011;62988;55.776;37.544;2023-05-09T08:29:37;3.70;;;0.90;;
74503;SDS011;62988;55.776;37.544;2023-05-09T08:32:02;5.88;;;1.25;;
74503;SDS011;62988;55.776;37.544;2023-05-09T08:34:28;4.10;;;1.23;;
74503;SDS011;62988;55.776;37.544;2023-05-09T08:36:55;2.22;;;1.00;;
74503;SDS011;62988;55.776;37.544;2023-05-09T08:39:20;3.00;;;1.13;;
74503;SDS011;62988;55.776;37.544;2023-05-09T08:41:46;2.97;;;1.10;;
74503;SDS011;62988;55.776;37.544;2023-05-09T08:44:11;5.45;;;1.27;;
74503;SDS011;62988;55.776;37.544;2023-05-09T08:46:37;4.13;;;1.17;;
74503;SDS011;62988;55.776;37.544;2023-05-09T08:49:04;2.35;;;0.90;;
74503;SDS011;62988;55.776;37.544;2023-05-09T08:51:30;4.82;;;1.23;;
74503;SDS011;62988;55.776;37.544;2023-05-09T08:53:56;4.25;;;1.10;;
74503;SDS011;62988;55.776;37.544;2023-05-09T08:56:22;2.40;;;0.95;;
74503;SDS011;62988;55.776;37.544;2023-05-09T08:58:47;4.32;;;1.33;;
74503;SDS011;62988;55.776;37.544;2023-05-09T09:01:13;2.03;;;0.95;;
74503;SDS011;62988;55.776;37.544;2023-05-09T09:03:38;3.80;;;1.00;;
74503;SDS011;62988;55.776;37.544;2023-05-09T09:06:05;3.97;;;1.15;;
74503;SDS011;62988;55.776;37.544;2023-05-09T09:08:31;1.90;;;0.88;;
74503;SDS011;62988;55.776;37.544;2023-05-09T09:10:58;7.00;;;1.40;;
74503;SDS011;62988;55.776;37.544;2023-05-09T09:13:23;4.85;;;1.42;;
74503;SDS011;62988;55.776;37.544;2023-05-09T09:15:49;3.53;;;1.30;;
74503;SDS011;62988;55.776;37.544;2023-05-09T09:18:20;4.45;;;1.60;;
74503;SDS011;62988;55.776;37.544;2023-05-09T09:20:51;4.15;;;1.20;;
74503;SDS011;62988;55.776;37.544;2023-05-09T09:23:17;2.75;;;1.23;;
74503;SDS011;62988;55.776;37.544;2023-05-09T09:25:46;2.47;;;1.00;;
74503;SDS011;62988;55.776;37.544;2023-05-09T09:28:12;2.95;;;1.15;;
74503;SDS011;62988;55.776;37.544;2023-05-09T09:30:43;3.90;;;1.30;;
74503;SDS011;62988;55.776;37.544;2023-05-09T09:33:09;2.65;;;1.05;;
74503;SDS011;62988;55.776;37.544;2023-05-09T09:35:37;2.13;;;1.02;;
74503;SDS011;62988;55.776;37.544;2023-05-09T09:38:04;4.07;;;1.30;;
74503;SDS011;62988;55.776;37.544;2023-05-09T09:40:30;4.00;;;1.75;;
74503;SDS011;62988;55.776;37.544;2023-05-09T09:42:55;3.03;;;1.23;;
74503;SDS011;62988;55.776;37.544;2023-05-09T09:45:20;3.60;;;1.10;;
74503;SDS011;62988;55.776;37.544;2023-05-09T09:47:47;3.65;;;1.63;;
74503;SDS011;62988;55.776;37.544;2023-05-09T09:50:14;4.63;;;1.08;;
74503;SDS011;62988;55.776;37.544;2023-05-09T09:55:08;3.60;;;1.10;;
74503;SDS011;62988;55.776;37.544;2023-05-09T09:57:34;3.35;;;1.35;;
74503;SDS011;62988;55.776;37.544;2023-05-09T10:00:04;2.13;;;1.20;;
74503;SDS011;62988;55.776;37.544;2023-05-09T10:02:30;3.75;;;1.30;;
74503;SDS011;62988;55.776;37.544;2023-05-09T10:04:55;6.43;;;1.63;;
74503;SDS011;62988;55.776;37.544;2023-05-09T10:07:21;4.23;;;1.20;;
74503;SDS011;62988;55.776;37.544;2023-05-09T10:09:47;3.08;;;1.52;;
74503;SDS011;62988;55.776;37.544;2023-05-09T10:12:13;3.08;;;1.30;;
74503;SDS011;62988;55.776;37.544;2023-05-09T10:14:43;2.35;;;1.10;;
74503;SDS011;62988;55.776;37.544;2023-05-09T10:17:10;8.05;;;1.50;;
74503;SDS011;62988;55.776;37.544;2023-05-09T10:19:37;3.10;;;1.42;;
74503;SDS011;62988;55.776;37.544;2023-05-09T10:22:04;4.78;;;1.23;;
74503;SDS011;62988;55.776;37.544;2023-05-09T10:24:47;2.53;;;1.13;;
74503;SDS011;62988;55.776;37.544;2023-05-09T10:27:17;3.55;;;1.38;;
74503;SDS011;62988;55.776;37.544;2023-05-09T10:29:44;3.63;;;1.05;;
74503;SDS011;62988;55.776;37.544;2023-05-09T10:32:32;3.72;;;1.20;;
74503;SDS011;62988;55.776;37.544;2023-05-09T10:34:57;3.22;;;1.33;;
74503;SDS011;62988;55.776;37.544;2023-05-09T10:37:24;5.00;;;1.17;;
74503;SDS011;62988;55.776;37.544;2023-05-09T10:39:50;7.07;;;1.77;;
74503;SDS011;62988;55.776;37.544;2023-05-09T10:42:18;2.65;;;1.10;;
74503;SDS011;62988;55.776;37.544;2023-05-09T10:44:43;4.30;;;1.33;;
74503;SDS011;62988;55.776;37.544;2023-05-09T10:47:10;1.95;;;1.10;;
74503;SDS011;62988;55.776;37.544;2023-05-09T10:49:37;3.50;;;1.10;;
74503;SDS011;62988;55.776;37.544;2023-05-09T10:52:02;3.63;;;1.30;;
74503;SDS011;62988;55.776;37.544;2023-05-09T10:54:28;3.25;;;1.00;;
74503;SDS011;62988;55.776;37.544;2023-05-09T10:56:56;6.15;;;1.10;;
74503;SDS011;62988;55.776;37.544;2023-05-09T10:59:39;2.47;;;1.40;;
74503;SDS011;62988;55.776;37.544;2023-05-09T11:02:04;3.28;;;1.30;;
74503;SDS011;62988;55.776;37.544;2023-05-09T11:04:30;2.70;;;1.35;;
74503;SDS011;62988;55.776;37.544;2023-05-09T11:06:57;3.55;;;1.50;;
74503;SDS011;62988;55.776;37.544;2023-05-09T11:12:13;2.35;;;1.23;;
74503;SDS011;62988;55.776;37.544;2023-05-09T11:14:42;3.15;;;1.25;;
74503;SDS011;62988;55.776;37.544;2023-05-09T11:17:29;2.72;;;1.13;;
74503;SDS011;62988;55.776;37.544;2023-05-09T11:20:02;3.55;;;1.50;;
74503;SDS011;62988;55.776;37.544;2023-05-09T11:22:30;2.65;;;1.13;;
74503;SDS011;62988;55.776;37.544;2023-05-09T11:27:25;2.80;;;1.30;;
74503;SDS011;62988;55.776;37.544;2023-05-09T11:29:56;2.88;;;1.10;;
74503;SDS011;62988;55.776;37.544;2023-05-09T11:32:26;3.72;;;1.20;;
74503;SDS011;62988;55.776;37.544;2023-05-09T11:34:51;4.28;;;1.30;;
74503;SDS011;62988;55.776;37.544;2023-05-09T11:37:29;2.60;;;1.20;;
74503;SDS011;62988;55.776;37.544;2023-05-09T11:40:01;3.58;;;1.40;;
74503;SDS011;62988;55.776;37.544;2023-05-09T11:42:30;3.20;;;1.40;;
74503;SDS011;62988;55.776;37.544;2023-05-09T11:44:56;2.67;;;1.17;;
74503;SDS011;62988;55.776;37.544;2023-05-09T11:47:22;3.05;;;1.23;;
74503;SDS011;62988;55.776;37.544;2023-05-09T11:49:47;3.17;;;1.55;;
74503;SDS011;62988;55.776;37.544;2023-05-09T11:52:14;3.55;;;1.30;;
74503;SDS011;62988;55.776;37.544;2023-05-09T11:54:39;3.13;;;1.23;;
74503;SDS011;62988;55.776;37.544;2023-05-09T11:57:05;3.30;;;1.45;;
74503;SDS011;62988;55.776;37.544;2023-05-09T11:59:32;2.92;;;1.50;;
74503;SDS011;62988;55.776;37.544;2023-05-09T12:02:01;4.55;;;1.33;;
74503;SDS011;62988;55.776;37.544;2023-05-09T12:04:27;2.47;;;1.40;;
74503;SDS011;62988;55.776;37.544;2023-05-09T12:06:56;3.05;;;1.30;;
74503;SDS011;62988;55.776;37.544;2023-05-09T12:09:21;2.65;;;1.40;;
74503;SDS011;62988;55.776;37.544;2023-05-09T12:11:47;4.03;;;1.25;;
74503;SDS011;62988;55.776;37.544;2023-05-09T12:14:25;3.85;;;1.60;;
74503;SDS011;62988;55.776;37.544;2023-05-09T12:16:50;3.55;;;1.50;;
74503;SDS011;62988;55.776;37.544;2023-05-09T12:19:17;3.53;;;1.83;;
74503;SDS011;62988;55.776;37.544;2023-05-09T12:21:42;4.28;;;1.35;;
74503;SDS011;62988;55.776;37.544;2023-05-09T12:24:08;4.90;;;1.10;;
74503;SDS011;62988;55.776;37.544;2023-05-09T12:26:33;2.33;;;1.30;;
74503;SDS011;62988;55.776;37.544;2023-05-09T12:28:58;6.10;;;1.50;;
74503;SDS011;62988;55.776;37.544;2023-05-09T12:31:33;4.97;;;1.58;;
74503;SDS011;62988;55.776;37.544;2023-05-09T12:33:58;3.00;;;1.58;;
74503;SDS011;62988;55.776;37.544;2023-05-09T12:36:25;4.85;;;1.55;;
74503;SDS011;62988;55.776;37.544;2023-05-09T12:38:54;4.03;;;1.52;;
74503;SDS011;62988;55.776;37.544;2023-05-09T12:41:19;4.22;;;1.50;;
74503;SDS011;62988;55.776;37.544;2023-05-09T12:43:49;3.65;;;1.40;;
74503;SDS011;62988;55.776;37.544;2023-05-09T12:46:18;4.88;;;1.40;;
74503;SDS011;62988;55.776;37.544;2023-05-09T12:48:44;6.35;;;1.58;;
74503;SDS011;62988;55.776;37.544;2023-05-09T12:51:09;3.03;;;1.55;;
74503;SDS011;62988;55.776;37.544;2023-05-09T12:53:38;6.90;;;1.58;;
74503;SDS011;62988;55.776;37.544;2023-05-09T12:56:10;3.15;;;1.30;;
74503;SDS011;62988;55.776;37.544;2023-05-09T12:58:36;4.25;;;1.35;;
74503;SDS011;62988;55.776;37.544;2023-05-09T13:01:04;5.13;;;1.45;;
74503;SDS011;62988;55.776;37.544;2023-05-09T13:03:30;3.65;;;1.25;;
74503;SDS011;62988;55.776;37.544;2023-05-09T13:06:02;7.57;;;1.52;;
74503;SDS011;62988;55.776;37.544;2023-05-09T13:08:29;3.35;;;1.63;;
74503;SDS011;62988;55.776;37.544;2023-05-09T13:10:55;2.88;;;1.40;;
74503;SDS011;62988;55.776;37.544;2023-05-09T13:13:23;9.15;;;1.50;;
74503;SDS011;62988;55.776;37.544;2023-05-09T13:15:50;3.88;;;1.55;;
74503;SDS011;62988;55.776;37.544;2023-05-09T13:18:16;5.80;;;1.50;;
74503;SDS011;62988;55.776;37.544;2023-05-09T13:20:41;4.75;;;2.05;;
74503;SDS011;62988;55.776;37.544;2023-05-09T13:23:06;6.30;;;2.03;;
74503;SDS011;62988;55.776;37.544;2023-05-09T13:25:32;4.17;;;1.70;;
74503;SDS011;62988;55.776;37.544;2023-05-09T13:27:57;5.18;;;1.38;;
74503;SDS011;62988;55.776;37.544;2023-05-09T13:30:22;3.30;;;1.50;;
74503;SDS011;62988;55.776;37.544;2023-05-09T13:32:48;4.27;;;1.40;;
74503;SDS011;62988;55.776;37.544;2023-05-09T13:35:13;6.30;;;1.52;;
74503;SDS011;62988;55.776;37.544;2023-05-09T13:37:39;2.92;;;1.30;;
74503;SDS011;62988;55.776;37.544;2023-05-09T13:40:04;2.78;;;1.60;;
74503;SDS011;62988;55.776;37.544;2023-05-09T13:42:32;3.03;;;1.50;;
74503;SDS011;62988;55.776;37.544;2023-05-09T13:44:57;2.78;;;1.25;;
74503;SDS011;62988;55.776;37.544;2023-05-09T13:47:22;3.83;;;1.30;;
74503;SDS011;62988;55.776;37.544;2023-05-09T13:49:48;2.72;;;1.33;;
74503;SDS011;62988;55.776;37.544;2023-05-09T13:52:14;3.90;;;1.30;;
74503;SDS011;62988;55.776;37.544;2023-05-09T13:54:40;4.18;;;1.60;;
74503;SDS011;62988;55.776;37.544;2023-05-09T13:57:05;3.45;;;1.83;;
74503;SDS011;62988;55.776;37.544;2023-05-09T13:59:32;4.63;;;1.73;;
74503;SDS011;62988;55.776;37.544;2023-05-09T14:01:57;5.32;;;1.48;;
74503;SDS011;62988;55.776;37.544;2023-05-09T14:04:24;6.15;;;2.63;;
74503;SDS011;62988;55.776;37.544;2023-05-09T14:06:49;5.78;;;2.80;;
74503;SDS011;62988;55.776;37.544;2023-05-09T14:09:15;3.10;;;1.60;;
74503;SDS011;62988;55.776;37.544;2023-05-09T14:11:41;3.90;;;1.42;;
74503;SDS011;62988;55.776;37.544;2023-05-09T14:14:06;3.90;;;1.38;;
74503;SDS011;62988;55.776;37.544;2023-05-09T14:16:32;5.68;;;1.90;;
74503;SDS011;62988;55.776;37.544;2023-05-09T14:18:57;5.68;;;1.80;;
74503;SDS011;62988;55.776;37.544;2023-05-09T14:21:23;3.35;;;1.90;;
74503;SDS011;62988;55.776;37.544;2023-05-09T14:23:48;4.40;;;1.70;;
74503;SDS011;62988;55.776;37.544;2023-05-09T14:26:14;8.90;;;1.70;;
74503;SDS011;62988;55.776;37.544;2023-05-09T14:28:39;5.30;;;1.60;;
74503;SDS011;62988;55.776;37.544;2023-05-09T14:31:05;5.40;;;1.77;;
74503;SDS011;62988;55.776;37.544;2023-05-09T14:33:30;5.70;;;2.30;;
74503;SDS011;62988;55.776;37.544;2023-05-09T14:35:56;5.20;;;1.70;;
74503;SDS011;62988;55.776;37.544;2023-05-09T14:38:22;3.53;;;1.63;;
74503;SDS011;62988;55.776;37.544;2023-05-09T14:40:47;3.13;;;1.50;;
74503;SDS011;62988;55.776;37.544;2023-05-09T14:43:13;4.15;;;1.65;;